sensor_id;sensor_type;location;lat;lon;timestamp;P1;durP1;ratioP1;P2;durP2;ratioP2
65558;SDS011;52203;51.998;5.140;2022-09-16T00:00:32;3.83;;;1.33;;
65558;SDS011;52203;51.998;5.140;2022-09-16T00:02:58;2.80;;;1.00;;
65558;SDS011;52203;51.998;5.140;2022-09-16T00:05:24;1.85;;;0.90;;
65558;SDS011;52203;51.998;5.140;2022-09-16T00:07:50;4.40;;;1.00;;
65558;SDS011;52203;51.998;5.140;2022-09-16T00:10:15;3.38;;;1.00;;
65558;SDS011;52203;51.998;5.140;2022-09-16T00:12:41;3.58;;;1.10;;
65558;SDS011;52203;51.998;5.140;2022-09-16T00:15:07;1.90;;;1.02;;
65558;SDS011;52203;51.998;5.140;2022-09-16T00:17:34;5.32;;;1.30;;
65558;SDS011;52203;51.998;5.140;2022-09-16T00:19:59;2.25;;;0.88;;
65558;SDS011;52203;51.998;5.140;2022-09-16T00:22:26;4.07;;;1.10;;
65558;SDS011;52203;51.998;5.140;2022-09-16T00:24:52;3.60;;;1.10;;
65558;SDS011;52203;51.998;5.140;2022-09-16T00:27:18;5.00;;;1.20;;
65558;SDS011;52203;51.998;5.140;2022-09-16T00:29:43;3.05;;;1.13;;
65558;SDS011;52203;51.998;5.140;2022-09-16T00:32:09;4.45;;;0.90;;
65558;SDS011;52203;51.998;5.140;2022-09-16T00:34:34;6.63;;;1.23;;
65558;SDS011;52203;51.998;5.140;2022-09-16T00:36:59;3.92;;;1.02;;
65558;SDS011;52203;51.998;5.140;2022-09-16T00:39:27;6.50;;;1.40;;
65558;SDS011;52203;51.998;5.140;2022-09-16T00:41:53;2.22;;;0.88;;
65558;SDS011;52203;51.998;5.140;2022-09-16T00:47:33;3.45;;;1.10;;
65558;SDS011;52203;51.998;5.140;2022-09-16T00:50:06;3.72;;;1.02;;
65558;SDS011;52203;51.998;5.140;2022-09-16T00:52:36;2.63;;;0.88;;
65558;SDS011;52203;51.998;5.140;2022-09-16T00:55:05;5.55;;;1.20;;
65558;SDS011;52203;51.998;5.140;2022-09-16T00:57:33;3.85;;;1.10;;
65558;SDS011;52203;51.998;5.140;2022-09-16T01:00:01;6.85;;;1.10;;
65558;SDS011;52203;51.998;5.140;2022-09-16T01:02:28;4.35;;;1.25;;
65558;SDS011;52203;51.998;5.140;2022-09-16T01:04:55;2.80;;;1.00;;
65558;SDS011;52203;51.998;5.140;2022-09-16T01:07:28;3.00;;;1.35;;
65558;SDS011;52203;51.998;5.140;2022-09-16T01:09:57;5.93;;;1.55;;
65558;SDS011;52203;51.998;5.140;2022-09-16T01:12:23;7.13;;;1.55;;
65558;SDS011;52203;51.998;5.140;2022-09-16T01:14:51;4.20;;;1.40;;
65558;SDS011;52203;51.998;5.140;2022-09-16T01:17:25;5.38;;;1.33;;
65558;SDS011;52203;51.998;5.140;2022-09-16T01:25:35;1.63;;;1.17;;
65558;SDS011;52203;51.998;5.140;2022-09-16T01:31:01;5.03;;;1.80;;
65558;SDS011;52203;51.998;5.140;2022-09-16T01:39:15;3.80;;;1.40;;
65558;SDS011;52203;51.998;5.140;2022-09-16T01:44:51;4.72;;;1.30;;
65558;SDS011;52203;51.998;5.140;2022-09-16T01:47:23;5.38;;;1.50;;
65558;SDS011;52203;51.998;5.140;2022-09-16T01:50:05;3.50;;;0.98;;
65558;SDS011;52203;51.998;5.140;2022-09-16T01:52:42;4.07;;;1.20;;
65558;SDS011;52203;51.998;5.140;2022-09-16T01:55:29;4.95;;;1.42;;
65558;SDS011;52203;51.998;5.140;2022-09-16T02:00:47;4.72;;;1.30;;
65558;SDS011;52203;51.998;5.140;2022-09-16T02:03:18;6.90;;;1.50;;
65558;SDS011;52203;51.998;5.140;2022-09-16T02:05:54;3.35;;;1.08;;
65558;SDS011;52203;51.998;5.140;2022-09-16T02:08:28;3.35;;;1.15;;
65558;SDS011;52203;51.998;5.140;2022-09-16T02:11:02;4.13;;;1.30;;
65558;SDS011;52203;51.998;5.140;2022-09-16T02:13:35;3.17;;;1.50;;
65558;SDS011;52203;51.998;5.140;2022-09-16T02:16:10;3.40;;;1.33;;
65558;SDS011;52203;51.998;5.140;2022-09-16T02:18:41;6.13;;;1.38;;
65558;SDS011;52203;51.998;5.140;2022-09-16T02:21:10;4.32;;;1.40;;
65558;SDS011;52203;51.998;5.140;2022-09-16T02:23:40;6.32;;;1.60;;
65558;SDS011;52203;51.998;5.140;2022-09-16T02:26:14;5.65;;;1.30;;
65558;SDS011;52203;51.998;5.140;2022-09-16T02:28:45;3.92;;;1.10;;
65558;SDS011;52203;51.998;5.140;2022-09-16T02:31:13;3.75;;;1.10;;
65558;SDS011;52203;51.998;5.140;2022-09-16T02:36:18;3.88;;;0.88;;
65558;SDS011;52203;51.998;5.140;2022-09-16T02:38:48;3.80;;;0.85;;
65558;SDS011;52203;51.998;5.140;2022-09-16T02:41:17;3.38;;;1.10;;
65558;SDS011;52203;51.998;5.140;2022-09-16T02:43:44;5.07;;;1.00;;
65558;SDS011;52203;51.998;5.140;2022-09-16T02:48:46;5.68;;;1.20;;
65558;SDS011;52203;51.998;5.140;2022-09-16T02:54:12;2.50;;;1.20;;
65558;SDS011;52203;51.998;5.140;2022-09-16T02:56:57;6.68;;;0.90;;
65558;SDS011;52203;51.998;5.140;2022-09-16T02:59:23;5.00;;;1.05;;
65558;SDS011;52203;51.998;5.140;2022-09-16T03:01:49;3.85;;;0.90;;
65558;SDS011;52203;51.998;5.140;2022-09-16T03:04:16;3.65;;;0.80;;
65558;SDS011;52203;51.998;5.140;2022-09-16T03:06:43;4.07;;;1.00;;
65558;SDS011;52203;51.998;5.140;2022-09-16T03:09:10;4.68;;;0.98;;
65558;SDS011;52203;51.998;5.140;2022-09-16T03:22:51;4.75;;;1.00;;
65558;SDS011;52203;51.998;5.140;2022-09-16T03:30:57;5.75;;;0.90;;
65558;SDS011;52203;51.998;5.140;2022-09-16T03:33:34;3.88;;;1.00;;
65558;SDS011;52203;51.998;5.140;2022-09-16T03:36:08;2.55;;;1.00;;
65558;SDS011;52203;51.998;5.140;2022-09-16T03:38:37;3.97;;;1.13;;
65558;SDS011;52203;51.998;5.140;2022-09-16T03:41:05;5.43;;;1.10;;
65558;SDS011;52203;51.998;5.140;2022-09-16T03:43:32;2.70;;;0.80;;
65558;SDS011;52203;51.998;5.140;2022-09-16T03:45:57;3.85;;;0.95;;
65558;SDS011;52203;51.998;5.140;2022-09-16T03:48:23;3.53;;;0.90;;
65558;SDS011;52203;51.998;5.140;2022-09-16T03:50:48;4.38;;;1.00;;
65558;SDS011;52203;51.998;5.140;2022-09-16T03:53:14;1.23;;;0.60;;
65558;SDS011;52203;51.998;5.140;2022-09-16T03:55:39;2.72;;;0.90;;
65558;SDS011;52203;51.998;5.140;2022-09-16T03:58:05;4.57;;;1.05;;
65558;SDS011;52203;51.998;5.140;2022-09-16T04:00:30;4.18;;;0.77;;
65558;SDS011;52203;51.998;5.140;2022-09-16T04:02:57;2.00;;;0.80;;
65558;SDS011;52203;51.998;5.140;2022-09-16T04:05:23;4.95;;;0.90;;
65558;SDS011;52203;51.998;5.140;2022-09-16T04:07:49;1.70;;;1.17;;
65558;SDS011;52203;51.998;5.140;2022-09-16T04:10:15;3.53;;;0.75;;
65558;SDS011;52203;51.998;5.140;2022-09-16T04:12:40;1.38;;;0.68;;
65558;SDS011;52203;51.998;5.140;2022-09-16T04:15:06;4.68;;;0.93;;
65558;SDS011;52203;51.998;5.140;2022-09-16T04:17:32;3.58;;;0.90;;
65558;SDS011;52203;51.998;5.140;2022-09-16T04:19:58;4.28;;;0.90;;
65558;SDS011;52203;51.998;5.140;2022-09-16T04:22:26;6.03;;;1.10;;
65558;SDS011;52203;51.998;5.140;2022-09-16T04:24:53;6.18;;;0.80;;
65558;SDS011;52203;51.998;5.140;2022-09-16T04:27:18;2.33;;;0.98;;
65558;SDS011;52203;51.998;5.140;2022-09-16T04:29:44;4.78;;;1.00;;
65558;SDS011;52203;51.998;5.140;2022-09-16T04:32:09;5.05;;;1.15;;
65558;SDS011;52203;51.998;5.140;2022-09-16T04:34:35;3.63;;;0.70;;
65558;SDS011;52203;51.998;5.140;2022-09-16T04:37:00;3.83;;;0.77;;
65558;SDS011;52203;51.998;5.140;2022-09-16T04:39:26;3.50;;;0.90;;
65558;SDS011;52203;51.998;5.140;2022-09-16T04:41:51;5.25;;;0.98;;
65558;SDS011;52203;51.998;5.140;2022-09-16T04:44:17;3.00;;;0.90;;
65558;SDS011;52203;51.998;5.140;2022-09-16T04:46:42;1.45;;;0.77;;
65558;SDS011;52203;51.998;5.140;2022-09-16T04:49:08;3.00;;;0.70;;
65558;SDS011;52203;51.998;5.140;2022-09-16T04:51:33;1.75;;;0.80;;
65558;SDS011;52203;51.998;5.140;2022-09-16T04:53:59;1.60;;;0.70;;
65558;SDS011;52203;51.998;5.140;2022-09-16T04:56:26;2.35;;;0.95;;
65558;SDS011;52203;51.998;5.140;2022-09-16T04:58:57;2.25;;;0.90;;
65558;SDS011;52203;51.998;5.140;2022-09-16T05:01:25;3.28;;;0.80;;
65558;SDS011;52203;51.998;5.140;2022-09-16T05:03:53;4.15;;;0.85;;
65558;SDS011;52203;51.998;5.140;2022-09-16T05:06:21;4.32;;;1.10;;
65558;SDS011;52203;51.998;5.140;2022-09-16T05:08:49;2.80;;;1.02;;
65558;SDS011;52203;51.998;5.140;2022-09-16T05:11:26;4.65;;;1.00;;
65558;SDS011;52203;51.998;5.140;2022-09-16T05:14:02;2.92;;;0.80;;
65558;SDS011;52203;51.998;5.140;2022-09-16T05:16:31;2.58;;;0.90;;
65558;SDS011;52203;51.998;5.140;2022-09-16T05:18:58;6.03;;;1.42;;
65558;SDS011;52203;51.998;5.140;2022-09-16T05:21:25;3.67;;;0.88;;
65558;SDS011;52203;51.998;5.140;2022-09-16T05:23:52;3.53;;;1.00;;
65558;SDS011;52203;51.998;5.140;2022-09-16T05:28:49;2.60;;;1.27;;
65558;SDS011;52203;51.998;5.140;2022-09-16T05:31:17;4.30;;;1.00;;
65558;SDS011;52203;51.998;5.140;2022-09-16T05:36:31;1.70;;;0.77;;
65558;SDS011;52203;51.998;5.140;2022-09-16T05:38:59;4.18;;;0.90;;
65558;SDS011;52203;51.998;5.140;2022-09-16T05:41:25;5.82;;;0.98;;
65558;SDS011;52203;51.998;5.140;2022-09-16T05:43:51;1.98;;;0.80;;
65558;SDS011;52203;51.998;5.140;2022-09-16T05:46:18;2.63;;;0.82;;
65558;SDS011;52203;51.998;5.140;2022-09-16T05:48:45;5.65;;;1.10;;
65558;SDS011;52203;51.998;5.140;2022-09-16T05:51:12;4.95;;;1.13;;
65558;SDS011;52203;51.998;5.140;2022-09-16T05:53:40;6.20;;;1.15;;
65558;SDS011;52203;51.998;5.140;2022-09-16T05:56:06;2.58;;;1.00;;
65558;SDS011;52203;51.998;5.140;2022-09-16T05:58:35;2.10;;;0.82;;
65558;SDS011;52203;51.998;5.140;2022-09-16T06:01:02;2.45;;;1.10;;
65558;SDS011;52203;51.998;5.140;2022-09-16T06:03:31;3.55;;;1.00;;
65558;SDS011;52203;51.998;5.140;2022-09-16T06:06:44;5.85;;;1.15;;
65558;SDS011;52203;51.998;5.140;2022-09-16T06:08:46;2.75;;;1.23;;
65558;SDS011;52203;51.998;5.140;2022-09-16T06:11:12;4.93;;;1.40;;
65558;SDS011;52203;51.998;5.140;2022-09-16T06:13:38;5.38;;;1.25;;
65558;SDS011;52203;51.998;5.140;2022-09-16T06:16:05;5.35;;;1.08;;
65558;SDS011;52203;51.998;5.140;2022-09-16T06:18:31;4.15;;;1.10;;
65558;SDS011;52203;51.998;5.140;2022-09-16T06:21:01;2.33;;;0.98;;
65558;SDS011;52203;51.998;5.140;2022-09-16T06:23:28;3.60;;;1.08;;
65558;SDS011;52203;51.998;5.140;2022-09-16T06:28:32;5.10;;;1.27;;
65558;SDS011;52203;51.998;5.140;2022-09-16T06:31:02;3.20;;;1.17;;
65558;SDS011;52203;51.998;5.140;2022-09-16T06:33:39;6.68;;;1.50;;
65558;SDS011;52203;51.998;5.140;2022-09-16T06:36:06;7.22;;;1.25;;
65558;SDS011;52203;51.998;5.140;2022-09-16T06:38:36;4.30;;;1.40;;
65558;SDS011;52203;51.998;5.140;2022-09-16T06:41:03;4.20;;;1.50;;
65558;SDS011;52203;51.998;5.140;2022-09-16T06:43:30;4.22;;;1.50;;
65558;SDS011;52203;51.998;5.140;2022-09-16T06:46:00;3.28;;;1.50;;
65558;SDS011;52203;51.998;5.140;2022-09-16T06:48:31;3.33;;;1.50;;
65558;SDS011;52203;51.998;5.140;2022-09-16T06:50:58;4.07;;;1.48;;
65558;SDS011;52203;51.998;5.140;2022-09-16T06:53:25;3.55;;;1.45;;
65558;SDS011;52203;51.998;5.140;2022-09-16T06:55:51;2.58;;;1.17;;
65558;SDS011;52203;51.998;5.140;2022-09-16T06:58:16;4.60;;;1.50;;
65558;SDS011;52203;51.998;5.140;2022-09-16T07:00:42;4.43;;;1.30;;
65558;SDS011;52203;51.998;5.140;2022-09-16T07:03:07;4.72;;;1.90;;
65558;SDS011;52203;51.998;5.140;2022-09-16T07:05:33;5.07;;;1.23;;
65558;SDS011;52203;51.998;5.140;2022-09-16T07:07:58;3.85;;;1.50;;
65558;SDS011;52203;51.998;5.140;2022-09-16T07:10:24;4.93;;;1.20;;
65558;SDS011;52203;51.998;5.140;2022-09-16T07:12:50;3.97;;;1.20;;
65558;SDS011;52203;51.998;5.140;2022-09-16T07:15:16;4.13;;;1.70;;
65558;SDS011;52203;51.998;5.140;2022-09-16T07:17:41;3.45;;;1.20;;
65558;SDS011;52203;51.998;5.140;2022-09-16T07:20:07;4.43;;;1.00;;
65558;SDS011;52203;51.998;5.140;2022-09-16T07:22:33;6.40;;;1.17;;
65558;SDS011;52203;51.998;5.140;2022-09-16T07:24:59;4.80;;;1.10;;
65558;SDS011;52203;51.998;5.140;2022-09-16T07:27:24;6.38;;;1.20;;
65558;SDS011;52203;51.998;5.140;2022-09-16T07:29:50;4.70;;;1.23;;
65558;SDS011;52203;51.998;5.140;2022-09-16T07:32:17;5.55;;;1.27;;
65558;SDS011;52203;51.998;5.140;2022-09-16T07:34:43;4.10;;;0.90;;
65558;SDS011;52203;51.998;5.140;2022-09-16T07:37:08;6.85;;;0.90;;
65558;SDS011;52203;51.998;5.140;2022-09-16T07:39:34;2.60;;;0.98;;
65558;SDS011;52203;51.998;5.140;2022-09-16T07:41:59;4.35;;;0.90;;
65558;SDS011;52203;51.998;5.140;2022-09-16T07:44:27;2.53;;;0.90;;
65558;SDS011;52203;51.998;5.140;2022-09-16T07:46:53;2.00;;;0.70;;
65558;SDS011;52203;51.998;5.140;2022-09-16T07:49:19;1.77;;;0.80;;
65558;SDS011;52203;51.998;5.140;2022-09-16T07:51:44;4.00;;;0.85;;
65558;SDS011;52203;51.998;5.140;2022-09-16T07:54:14;3.53;;;0.90;;
65558;SDS011;52203;51.998;5.140;2022-09-16T07:56:40;3.55;;;0.82;;
65558;SDS011;52203;51.998;5.140;2022-09-16T07:59:09;4.75;;;0.90;;
65558;SDS011;52203;51.998;5.140;2022-09-16T08:01:37;4.70;;;1.10;;
65558;SDS011;52203;51.998;5.140;2022-09-16T08:04:03;6.15;;;0.95;;
65558;SDS011;52203;51.998;5.140;2022-09-16T08:06:29;3.65;;;0.85;;
65558;SDS011;52203;51.998;5.140;2022-09-16T08:08:56;3.88;;;0.60;;
65558;SDS011;52203;51.998;5.140;2022-09-16T08:11:27;2.85;;;0.70;;
65558;SDS011;52203;51.998;5.140;2022-09-16T08:13:53;3.55;;;0.85;;
65558;SDS011;52203;51.998;5.140;2022-09-16T08:16:19;4.55;;;0.98;;
65558;SDS011;52203;51.998;5.140;2022-09-16T08:18:46;0.82;;;0.50;;
65558;SDS011;52203;51.998;5.140;2022-09-16T08:21:15;1.85;;;0.50;;
65558;SDS011;52203;51.998;5.140;2022-09-16T08:23:42;1.50;;;0.50;;
65558;SDS011;52203;51.998;5.140;2022-09-16T08:26:08;2.58;;;0.50;;
65558;SDS011;52203;51.998;5.140;2022-09-16T08:28:35;2.25;;;0.75;;
65558;SDS011;52203;51.998;5.140;2022-09-16T08:31:02;3.17;;;0.60;;
65558;SDS011;52203;51.998;5.140;2022-09-16T08:33:27;1.67;;;0.50;;
65558;SDS011;52203;51.998;5.140;2022-09-16T08:35:59;1.48;;;0.52;;
65558;SDS011;52203;51.998;5.140;2022-09-16T08:38:25;2.08;;;0.60;;
65558;SDS011;52203;51.998;5.140;2022-09-16T08:40:51;1.15;;;0.50;;
65558;SDS011;52203;51.998;5.140;2022-09-16T08:43:41;2.78;;;0.70;;
65558;SDS011;52203;51.998;5.140;2022-09-16T08:46:14;4.43;;;0.65;;
65558;SDS011;52203;51.998;5.140;2022-09-16T08:48:50;1.90;;;0.60;;
65558;SDS011;52203;51.998;5.140;2022-09-16T08:51:20;1.00;;;0.60;;
65558;SDS011;52203;51.998;5.140;2022-09-16T08:53:56;2.47;;;0.63;;
65558;SDS011;52203;51.998;5.140;2022-09-16T08:56:26;6.00;;;0.70;;
65558;SDS011;52203;51.998;5.140;2022-09-16T08:58:54;1.92;;;0.65;;
65558;SDS011;52203;51.998;5.140;2022-09-16T09:04:05;2.85;;;0.75;;
65558;SDS011;52203;51.998;5.140;2022-09-16T09:11:44;2.53;;;1.27;;
65558;SDS011;52203;51.998;5.140;2022-09-16T09:17:04;3.03;;;0.73;;
65558;SDS011;52203;51.998;5.140;2022-09-16T09:30:58;2.38;;;0.80;;
65558;SDS011;52203;51.998;5.140;2022-09-16T09:47:10;3.72;;;0.80;;
65558;SDS011;52203;51.998;5.140;2022-09-16T09:49:44;1.63;;;0.60;;
65558;SDS011;52203;51.998;5.140;2022-09-16T09:55:07;1.73;;;0.70;;
65558;SDS011;52203;51.998;5.140;2022-09-16T09:57:39;3.55;;;0.70;;
65558;SDS011;52203;51.998;5.140;2022-09-16T10:00:20;3.35;;;0.70;;
65558;SDS011;52203;51.998;5.140;2022-09-16T10:02:46;2.00;;;0.73;;
65558;SDS011;52203;51.998;5.140;2022-09-16T10:05:22;2.20;;;0.70;;
65558;SDS011;52203;51.998;5.140;2022-09-16T10:07:50;1.75;;;0.85;;
65558;SDS011;52203;51.998;5.140;2022-09-16T10:10:20;2.45;;;0.80;;
65558;SDS011;52203;51.998;5.140;2022-09-16T10:12:47;2.17;;;0.63;;
65558;SDS011;52203;51.998;5.140;2022-09-16T10:15:21;2.22;;;0.60;;
65558;SDS011;52203;51.998;5.140;2022-09-16T10:17:53;2.65;;;0.50;;
65558;SDS011;52203;51.998;5.140;2022-09-16T10:20:34;3.25;;;0.70;;
65558;SDS011;52203;51.998;5.140;2022-09-16T10:23:03;4.75;;;0.88;;
65558;SDS011;52203;51.998;5.140;2022-09-16T10:25:31;1.23;;;0.63;;
65558;SDS011;52203;51.998;5.140;2022-09-16T10:28:01;3.13;;;0.80;;
65558;SDS011;52203;51.998;5.140;2022-09-16T10:30:43;2.30;;;0.77;;
65558;SDS011;52203;51.998;5.140;2022-09-16T10:33:28;5.03;;;0.60;;
65558;SDS011;52203;51.998;5.140;2022-09-16T10:36:03;0.95;;;0.60;;
65558;SDS011;52203;51.998;5.140;2022-09-16T10:41:19;3.30;;;0.80;;
65558;SDS011;52203;51.998;5.140;2022-09-16T10:43:46;1.05;;;0.50;;
65558;SDS011;52203;51.998;5.140;2022-09-16T10:46:27;2.55;;;0.68;;
65558;SDS011;52203;51.998;5.140;2022-09-16T10:48:56;3.20;;;0.73;;
65558;SDS011;52203;51.998;5.140;2022-09-16T10:51:26;1.42;;;0.50;;
65558;SDS011;52203;51.998;5.140;2022-09-16T10:53:58;2.20;;;0.70;;
65558;SDS011;52203;51.998;5.140;2022-09-16T10:56:27;3.83;;;0.68;;
65558;SDS011;52203;51.998;5.140;2022-09-16T10:59:07;1.88;;;0.60;;
65558;SDS011;52203;51.998;5.140;2022-09-16T11:18:45;2.28;;;0.43;;
65558;SDS011;52203;51.998;5.140;2022-09-16T11:27:20;3.25;;;0.80;;
65558;SDS011;52203;51.998;5.140;2022-09-16T11:32:47;2.47;;;1.02;;
65558;SDS011;52203;51.998;5.140;2022-09-16T11:41:34;2.60;;;0.63;;
65558;SDS011;52203;51.998;5.140;2022-09-16T11:44:21;3.67;;;0.80;;
65558;SDS011;52203;51.998;5.140;2022-09-16T11:53:03;1.80;;;0.60;;
65558;SDS011;52203;51.998;5.140;2022-09-16T11:55:51;1.40;;;0.55;;
65558;SDS011;52203;51.998;5.140;2022-09-16T11:58:24;2.45;;;0.65;;
65558;SDS011;52203;51.998;5.140;2022-09-16T12:06:39;1.95;;;0.60;;
65558;SDS011;52203;51.998;5.140;2022-09-16T12:09:19;2.03;;;0.70;;
65558;SDS011;52203;51.998;5.140;2022-09-16T12:12:12;3.78;;;0.85;;
65558;SDS011;52203;51.998;5.140;2022-09-16T12:14:45;2.30;;;0.70;;
65558;SDS011;52203;51.998;5.140;2022-09-16T12:17:21;2.75;;;0.70;;
65558;SDS011;52203;51.998;5.140;2022-09-16T12:19:53;2.45;;;0.68;;
65558;SDS011;52203;51.998;5.140;2022-09-16T12:22:28;2.67;;;0.82;;
65558;SDS011;52203;51.998;5.140;2022-09-16T12:27:59;2.75;;;0.70;;
65558;SDS011;52203;51.998;5.140;2022-09-16T12:30:35;4.00;;;0.80;;
65558;SDS011;52203;51.998;5.140;2022-09-16T12:35:37;3.50;;;0.80;;
65558;SDS011;52203;51.998;5.140;2022-09-16T12:38:02;4.93;;;0.73;;
65558;SDS011;52203;51.998;5.140;2022-09-16T12:40:41;5.22;;;1.00;;
65558;SDS011;52203;51.998;5.140;2022-09-16T12:46:08;6.03;;;0.80;;
65558;SDS011;52203;51.998;5.140;2022-09-16T12:51:32;7.47;;;1.02;;
65558;SDS011;52203;51.998;5.140;2022-09-16T12:59:39;3.83;;;0.90;;
65558;SDS011;52203;51.998;5.140;2022-09-16T13:02:35;7.47;;;1.08;;
65558;SDS011;52203;51.998;5.140;2022-09-16T13:08:01;6.10;;;0.80;;
65558;SDS011;52203;51.998;5.140;2022-09-16T13:10:36;9.65;;;1.30;;
65558;SDS011;52203;51.998;5.140;2022-09-16T13:13:04;3.70;;;1.00;;
65558;SDS011;52203;51.998;5.140;2022-09-16T13:15:35;8.55;;;1.10;;
65558;SDS011;52203;51.998;5.140;2022-09-16T13:18:20;8.02;;;1.52;;
65558;SDS011;52203;51.998;5.140;2022-09-16T13:21:01;9.70;;;1.30;;
65558;SDS011;52203;51.998;5.140;2022-09-16T13:23:52;3.20;;;0.82;;
65558;SDS011;52203;51.998;5.140;2022-09-16T13:26:42;7.18;;;1.40;;
65558;SDS011;52203;51.998;5.140;2022-09-16T13:32:27;6.82;;;1.60;;
65558;SDS011;52203;51.998;5.140;2022-09-16T13:35:19;5.78;;;1.38;;
65558;SDS011;52203;51.998;5.140;2022-09-16T13:37:48;6.68;;;1.10;;
65558;SDS011;52203;51.998;5.140;2022-09-16T13:45:38;5.80;;;0.90;;
65558;SDS011;52203;51.998;5.140;2022-09-16T13:48:12;6.32;;;1.27;;
65558;SDS011;52203;51.998;5.140;2022-09-16T13:50:43;5.63;;;1.23;;
65558;SDS011;52203;51.998;5.140;2022-09-16T13:53:20;9.15;;;1.75;;
65558;SDS011;52203;51.998;5.140;2022-09-16T13:55:55;8.93;;;1.52;;
65558;SDS011;52203;51.998;5.140;2022-09-16T13:58:35;5.28;;;1.20;;
65558;SDS011;52203;51.998;5.140;2022-09-16T14:01:08;6.20;;;1.88;;
65558;SDS011;52203;51.998;5.140;2022-09-16T14:12:13;6.93;;;1.10;;
65558;SDS011;52203;51.998;5.140;2022-09-16T14:14:49;6.47;;;1.15;;
65558;SDS011;52203;51.998;5.140;2022-09-16T14:17:24;4.82;;;0.90;;
65558;SDS011;52203;51.998;5.140;2022-09-16T14:19:55;4.10;;;0.88;;
65558;SDS011;52203;51.998;5.140;2022-09-16T14:22:23;4.82;;;1.02;;
65558;SDS011;52203;51.998;5.140;2022-09-16T14:24:51;7.18;;;1.00;;
65558;SDS011;52203;51.998;5.140;2022-09-16T14:27:31;7.15;;;1.13;;
65558;SDS011;52203;51.998;5.140;2022-09-16T14:30:00;3.92;;;1.08;;
65558;SDS011;52203;51.998;5.140;2022-09-16T14:32:29;7.88;;;1.45;;
65558;SDS011;52203;51.998;5.140;2022-09-16T14:34:58;4.35;;;0.95;;
65558;SDS011;52203;51.998;5.140;2022-09-16T14:37:28;5.43;;;1.10;;
65558;SDS011;52203;51.998;5.140;2022-09-16T14:40:01;7.43;;;1.10;;
65558;SDS011;52203;51.998;5.140;2022-09-16T14:43:22;10.15;;;1.35;;
65558;SDS011;52203;51.998;5.140;2022-09-16T14:45:36;5.10;;;0.85;;
65558;SDS011;52203;51.998;5.140;2022-09-16T14:48:04;9.73;;;1.40;;
65558;SDS011;52203;51.998;5.140;2022-09-16T14:50:36;6.10;;;1.40;;
65558;SDS011;52203;51.998;5.140;2022-09-16T14:53:06;4.40;;;1.40;;
65558;SDS011;52203;51.998;5.140;2022-09-16T14:55:47;4.30;;;1.25;;
65558;SDS011;52203;51.998;5.140;2022-09-16T14:58:13;4.72;;;0.80;;
65558;SDS011;52203;51.998;5.140;2022-09-16T15:00:43;3.63;;;0.85;;
65558;SDS011;52203;51.998;5.140;2022-09-16T15:03:25;3.63;;;0.85;;
65558;SDS011;52203;51.998;5.140;2022-09-16T15:06:13;7.55;;;1.23;;
65558;SDS011;52203;51.998;5.140;2022-09-16T15:08:44;7.80;;;1.13;;
65558;SDS011;52203;51.998;5.140;2022-09-16T15:11:17;7.93;;;1.30;;
65558;SDS011;52203;51.998;5.140;2022-09-16T15:13:45;6.63;;;1.05;;
65558;SDS011;52203;51.998;5.140;2022-09-16T15:16:11;7.53;;;1.38;;
65558;SDS011;52203;51.998;5.140;2022-09-16T15:18:43;8.65;;;1.40;;
65558;SDS011;52203;51.998;5.140;2022-09-16T15:23:47;7.05;;;1.17;;
65558;SDS011;52203;51.998;5.140;2022-09-16T15:26:20;5.60;;;1.30;;
65558;SDS011;52203;51.998;5.140;2022-09-16T15:28:57;5.55;;;1.00;;
65558;SDS011;52203;51.998;5.140;2022-09-16T15:31:46;6.25;;;1.20;;
65558;SDS011;52203;51.998;5.140;2022-09-16T15:39:24;8.90;;;1.35;;
65558;SDS011;52203;51.998;5.140;2022-09-16T15:47:16;6.82;;;1.20;;
65558;SDS011;52203;51.998;5.140;2022-09-16T15:49:44;4.80;;;0.90;;
65558;SDS011;52203;51.998;5.140;2022-09-16T15:52:11;5.57;;;1.05;;
65558;SDS011;52203;51.998;5.140;2022-09-16T15:54:47;7.65;;;0.98;;
65558;SDS011;52203;51.998;5.140;2022-09-16T16:07:42;6.07;;;0.98;;
65558;SDS011;52203;51.998;5.140;2022-09-16T16:12:37;3.63;;;1.13;;
65558;SDS011;52203;51.998;5.140;2022-09-16T16:15:03;7.00;;;0.98;;
65558;SDS011;52203;51.998;5.140;2022-09-16T16:17:30;4.85;;;0.90;;
65558;SDS011;52203;51.998;5.140;2022-09-16T16:19:56;3.92;;;1.00;;
65558;SDS011;52203;51.998;5.140;2022-09-16T16:22:21;7.28;;;1.20;;
65558;SDS011;52203;51.998;5.140;2022-09-16T16:24:47;6.05;;;1.00;;
65558;SDS011;52203;51.998;5.140;2022-09-16T16:27:13;6.63;;;1.13;;
65558;SDS011;52203;51.998;5.140;2022-09-16T16:29:38;6.20;;;1.00;;
65558;SDS011;52203;51.998;5.140;2022-09-16T16:32:05;5.70;;;1.17;;
65558;SDS011;52203;51.998;5.140;2022-09-16T16:34:36;7.80;;;1.15;;
65558;SDS011;52203;51.998;5.140;2022-09-16T16:37:03;4.78;;;0.90;;
65558;SDS011;52203;51.998;5.140;2022-09-16T16:39:30;6.90;;;1.70;;
65558;SDS011;52203;51.998;5.140;2022-09-16T16:41:56;7.97;;;1.15;;
65558;SDS011;52203;51.998;5.140;2022-09-16T16:44:22;7.97;;;1.20;;
65558;SDS011;52203;51.998;5.140;2022-09-16T16:46:49;7.65;;;1.33;;
65558;SDS011;52203;51.998;5.140;2022-09-16T16:49:15;5.93;;;1.00;;
65558;SDS011;52203;51.998;5.140;2022-09-16T16:51:41;4.22;;;0.90;;
65558;SDS011;52203;51.998;5.140;2022-09-16T16:54:06;12.88;;;1.50;;
65558;SDS011;52203;51.998;5.140;2022-09-16T16:56:32;5.68;;;0.93;;
65558;SDS011;52203;51.998;5.140;2022-09-16T16:58:58;7.38;;;1.10;;
65558;SDS011;52203;51.998;5.140;2022-09-16T17:01:24;4.35;;;0.77;;
65558;SDS011;52203;51.998;5.140;2022-09-16T17:03:50;4.80;;;1.00;;
65558;SDS011;52203;51.998;5.140;2022-09-16T17:06:16;6.72;;;1.23;;
65558;SDS011;52203;51.998;5.140;2022-09-16T17:08:42;7.55;;;1.35;;
65558;SDS011;52203;51.998;5.140;2022-09-16T17:11:11;5.50;;;1.30;;
65558;SDS011;52203;51.998;5.140;2022-09-16T17:13:42;10.88;;;1.20;;
65558;SDS011;52203;51.998;5.140;2022-09-16T17:16:10;6.97;;;1.20;;
65558;SDS011;52203;51.998;5.140;2022-09-16T17:18:37;5.05;;;1.20;;
65558;SDS011;52203;51.998;5.140;2022-09-16T17:21:05;6.20;;;1.30;;
65558;SDS011;52203;51.998;5.140;2022-09-16T17:23:37;4.97;;;1.13;;
65558;SDS011;52203;51.998;5.140;2022-09-16T17:26:03;10.77;;;1.58;;
65558;SDS011;52203;51.998;5.140;2022-09-16T17:28:29;5.68;;;1.27;;
65558;SDS011;52203;51.998;5.140;2022-09-16T17:30:55;7.35;;;1.35;;
65558;SDS011;52203;51.998;5.140;2022-09-16T17:33:21;6.43;;;1.50;;
65558;SDS011;52203;51.998;5.140;2022-09-16T17:35:47;5.15;;;1.20;;
65558;SDS011;52203;51.998;5.140;2022-09-16T17:38:23;10.65;;;1.58;;
65558;SDS011;52203;51.998;5.140;2022-09-16T17:40:48;6.05;;;1.23;;
65558;SDS011;52203;51.998;5.140;2022-09-16T17:43:14;10.13;;;1.58;;
65558;SDS011;52203;51.998;5.140;2022-09-16T17:45:39;9.60;;;1.30;;
65558;SDS011;52203;51.998;5.140;2022-09-16T17:48:05;9.35;;;1.30;;
65558;SDS011;52203;51.998;5.140;2022-09-16T17:50:30;6.95;;;1.02;;
65558;SDS011;52203;51.998;5.140;2022-09-16T17:52:56;7.40;;;1.45;;
65558;SDS011;52203;51.998;5.140;2022-09-16T17:55:22;8.55;;;1.30;;
65558;SDS011;52203;51.998;5.140;2022-09-16T17:57:47;8.85;;;1.42;;
65558;SDS011;52203;51.998;5.140;2022-09-16T18:00:13;5.30;;;1.30;;
65558;SDS011;52203;51.998;5.140;2022-09-16T18:02:39;7.85;;;1.30;;
65558;SDS011;52203;51.998;5.140;2022-09-16T18:05:04;5.57;;;1.40;;
65558;SDS011;52203;51.998;5.140;2022-09-16T18:07:30;5.85;;;1.27;;
65558;SDS011;52203;51.998;5.140;2022-09-16T18:09:56;5.57;;;1.60;;
65558;SDS011;52203;51.998;5.140;2022-09-16T18:12:22;7.45;;;1.58;;
65558;SDS011;52203;51.998;5.140;2022-09-16T18:14:47;6.55;;;1.25;;
65558;SDS011;52203;51.998;5.140;2022-09-16T18:17:12;10.30;;;1.35;;
65558;SDS011;52203;51.998;5.140;2022-09-16T18:19:38;6.75;;;1.15;;
65558;SDS011;52203;51.998;5.140;2022-09-16T18:22:04;6.65;;;1.50;;
65558;SDS011;52203;51.998;5.140;2022-09-16T18:24:30;8.38;;;1.30;;
65558;SDS011;52203;51.998;5.140;2022-09-16T18:26:55;6.45;;;1.20;;